Newton, KS

6:47 AM CDT on September 20, 2014 (GMT -0500)
Col Jabara | Change Station
CLOSE
Current Station
Airport
Location: Wichita Jabara,
Elevation: 1421 ft
Nearby Weather Stations
4.0 Earthquake: Medford, Oklahoma (1 day ago)  

Elev 1421 ft 37.75 °N, 97.22 °W | Updated 53 minutes ago

Clear
Clear
69 °F
Feels Like 69 °F
N
10
Wind Variable Wind from SSW

Today
High -- | Low -- °F
--% Chance of Precip.
Yesterday
High -- | Low -- °F
Precip. -- in
7:15 AM 7:29 PM
Waning Crescent, 13% visible
Pressure 29.93 in
Visibility 7.0 miles
Clouds Clear
Dew Point 67 °F
Humidity 93%
Rainfall 0.00 in
Snow Depth Not available.
UV 0 out of 12
Pollen 6.30 out of 12
Air Quality Not available.
Flu Activity Not available.
METAR KAAO 201054Z AUTO 20009KT 7SM CLR 21/19 A2997 RMK AO2 SLP134 T02060194

More Conditions Fewer Conditions

Pressure 29.93 in
Visibility 7.0 miles
Clouds Clear
Dew Point 67 °F
Humidity 93%
Rainfall 0.00 in
Snow Depth Not available.
UV 0 out of 12
Pollen 6.30 out of 12
Air Quality Not available.
Flu Activity Not available.
METAR KAAO 201054Z AUTO 20009KT 7SM CLR 21/19 A2997 RMK AO2 SLP134 T02060194

More Conditions Fewer Conditions

10-Day Weather Forecast

Almanac

Astronomy

Sep. 20, 2014 Rise Set
Actual Time 7:15 AM CDT 7:29 PM CDT
Civil Twilight 6:49 AM CDT 7:55 PM CDT
Nautical Twilight 6:18 AM CDT 8:26 PM CDT
Astronomical Twilight 5:46 AM CDT 8:57 PM CDT
Moon 3:58 AM CDT 5:31 PM CDT
Length of Visible Light 13h 06m
Length of Day
12h 13m
Tomorrow will be 2m 26s shorter.
Waning Crescent, 13% of the Moon is Illuminated
Today
Waning Crescent
Sep 24
New
Oct 1
First Quarter
Oct 8
Full
Oct 15
Last Quarter

Today's Extremes

State Highs State Lows

Community

WunderPhotos

Upload Photos

1,754,835 photos uploaded!

Nearby

Snow Depth

Station Depth Elevation
No new snow has been reported.

Earthquake Activity

City Distance Mag. Time & Date
Medford, Oklahoma 87 miles 3.2 2:10 AM CDT
2014-09-20
Perry, Oklahoma 128 miles 3.3 12:08 AM CDT
2014-09-19
Cherokee, Oklahoma 99 miles 2.8 10:11 PM CDT
2014-09-18
Medford, Oklahoma 102 miles 4.0 8:31 PM CDT
2014-09-18
Minimum magnitude displayed is 2.5.

Coastal Water Temperatures

Place Temperature
No Stations Reporting

Nearby Weather Stations